sensor_id;sensor_type;location;lat;lon;timestamp;pressure;altitude;pressure_sealevel;temperature;humidity
46598;BME280;32318;48.858;8.252;2024-01-10T00:00:30;101227.56;;;-3.78;60.88
46598;BME280;32318;48.858;8.252;2024-01-10T00:08:31;101212.63;;;-3.73;60.57
46598;BME280;32318;48.858;8.252;2024-01-10T00:16:31;101200.09;;;-3.90;61.09
46598;BME280;32318;48.858;8.252;2024-01-10T00:24:32;101198.34;;;-3.89;60.87
46598;BME280;32318;48.858;8.252;2024-01-10T00:32:35;101182.66;;;-3.88;60.96
46598;BME280;32318;48.858;8.252;2024-01-10T00:40:35;101174.75;;;-3.86;61.23
46598;BME280;32318;48.858;8.252;2024-01-10T00:48:36;101169.19;;;-3.75;60.62
46598;BME280;32318;48.858;8.252;2024-01-10T00:56:36;101173.63;;;-3.78;60.62
46598;BME280;32318;48.858;8.252;2024-01-10T01:04:36;101177.91;;;-3.75;61.01
46598;BME280;32318;48.858;8.252;2024-01-10T01:12:37;101184.09;;;-3.79;61.25
46598;BME280;32318;48.858;8.252;2024-01-10T01:20:37;101180.78;;;-3.84;61.71
46598;BME280;32318;48.858;8.252;2024-01-10T01:28:38;101178.06;;;-3.81;61.79
46598;BME280;32318;48.858;8.252;2024-01-10T01:36:39;101179.69;;;-3.77;61.53
46598;BME280;32318;48.858;8.252;2024-01-10T01:44:39;101176.41;;;-3.82;61.99
46598;BME280;32318;48.858;8.252;2024-01-10T01:52:40;101168.66;;;-3.85;62.01
46598;BME280;32318;48.858;8.252;2024-01-10T02:00:41;101166.44;;;-3.71;61.37
46598;BME280;32318;48.858;8.252;2024-01-10T02:08:41;101167.31;;;-3.70;61.23
46598;BME280;32318;48.858;8.252;2024-01-10T02:16:42;101157.16;;;-3.80;61.68
46598;BME280;32318;48.858;8.252;2024-01-10T02:24:42;101152.78;;;-3.79;61.54
46598;BME280;32318;48.858;8.252;2024-01-10T02:32:42;101149.13;;;-3.73;61.28
46598;BME280;32318;48.858;8.252;2024-01-10T02:40:43;101159.47;;;-3.70;61.38
46598;BME280;32318;48.858;8.252;2024-01-10T02:48:43;101156.53;;;-3.59;60.68
46598;BME280;32318;48.858;8.252;2024-01-10T02:56:43;101151.97;;;-3.54;60.05
46598;BME280;32318;48.858;8.252;2024-01-10T03:04:44;101146.13;;;-3.61;60.66
46598;BME280;32318;48.858;8.252;2024-01-10T03:12:44;101133.22;;;-3.66;61.35
46598;BME280;32318;48.858;8.252;2024-01-10T03:20:45;101129.81;;;-3.68;61.52
46598;BME280;32318;48.858;8.252;2024-01-10T03:28:45;101130.72;;;-3.69;61.67
46598;BME280;32318;48.858;8.252;2024-01-10T03:36:45;101133.97;;;-3.62;61.58
46598;BME280;32318;48.858;8.252;2024-01-10T03:44:46;101138.41;;;-3.64;61.76
46598;BME280;32318;48.858;8.252;2024-01-10T03:52:46;101146.91;;;-3.59;62.30
46598;BME280;32318;48.858;8.252;2024-01-10T04:00:47;101146.06;;;-3.59;62.60
46598;BME280;32318;48.858;8.252;2024-01-10T04:08:47;101157.31;;;-3.57;63.00
46598;BME280;32318;48.858;8.252;2024-01-10T04:16:47;101151.84;;;-3.50;63.28
46598;BME280;32318;48.858;8.252;2024-01-10T04:24:48;101145.47;;;-3.41;62.72
46598;BME280;32318;48.858;8.252;2024-01-10T04:32:49;101143.44;;;-3.33;62.17
46598;BME280;32318;48.858;8.252;2024-01-10T04:40:49;101147.59;;;-3.27;62.01
46598;BME280;32318;48.858;8.252;2024-01-10T04:48:50;101150.38;;;-3.32;62.01
46598;BME280;32318;48.858;8.252;2024-01-10T04:56:50;101130.22;;;-3.28;62.03
46598;BME280;32318;48.858;8.252;2024-01-10T05:04:50;101145.03;;;-3.28;62.03
46598;BME280;32318;48.858;8.252;2024-01-10T05:12:54;101143.44;;;-3.33;62.18
46598;BME280;32318;48.858;8.252;2024-01-10T05:20:54;101134.72;;;-3.32;62.78
46598;BME280;32318;48.858;8.252;2024-01-10T05:28:54;101150.47;;;-3.35;62.49
46598;BME280;32318;48.858;8.252;2024-01-10T05:36:55;101145.47;;;-3.41;63.01
46598;BME280;32318;48.858;8.252;2024-01-10T05:44:56;101150.03;;;-3.48;63.81
46598;BME280;32318;48.858;8.252;2024-01-10T05:52:57;101148.31;;;-3.49;63.86
46598;BME280;32318;48.858;8.252;2024-01-10T06:00:57;101145.25;;;-3.60;64.53
46598;BME280;32318;48.858;8.252;2024-01-10T06:08:57;101142.13;;;-3.71;65.40
46598;BME280;32318;48.858;8.252;2024-01-10T06:17:23;101146.66;;;-3.78;65.59
46598;BME280;32318;48.858;8.252;2024-01-10T06:25:23;101141.53;;;-3.81;65.37
46598;BME280;32318;48.858;8.252;2024-01-10T06:33:24;101155.06;;;-3.95;66.00
46598;BME280;32318;48.858;8.252;2024-01-10T06:41:25;101158.03;;;-4.07;65.84
46598;BME280;32318;48.858;8.252;2024-01-10T06:49:25;101173.91;;;-4.15;66.44
46598;BME280;32318;48.858;8.252;2024-01-10T06:57:27;101173.91;;;-4.15;66.95
46598;BME280;32318;48.858;8.252;2024-01-10T07:05:27;101182.47;;;-4.10;66.27
46598;BME280;32318;48.858;8.252;2024-01-10T07:13:28;101187.41;;;-4.02;66.03
46598;BME280;32318;48.858;8.252;2024-01-10T07:21:28;101188.94;;;-4.23;66.61
46598;BME280;32318;48.858;8.252;2024-01-10T07:29:29;101197.81;;;-4.29;66.54
46598;BME280;32318;48.858;8.252;2024-01-10T07:37:29;101209.16;;;-4.32;66.21
46598;BME280;32318;48.858;8.252;2024-01-10T07:45:29;101214.47;;;-4.35;65.97
46598;BME280;32318;48.858;8.252;2024-01-10T07:53:30;101222.56;;;-4.44;66.49
46598;BME280;32318;48.858;8.252;2024-01-10T08:01:30;101231.91;;;-4.37;66.73
46598;BME280;32318;48.858;8.252;2024-01-10T08:09:30;101228.28;;;-4.31;66.75
46598;BME280;32318;48.858;8.252;2024-01-10T08:17:32;101237.88;;;-4.33;66.97
46598;BME280;32318;48.858;8.252;2024-01-10T08:25:34;101237.16;;;-4.08;66.37
46598;BME280;32318;48.858;8.252;2024-01-10T08:33:34;101229.22;;;-4.04;66.01
46598;BME280;32318;48.858;8.252;2024-01-10T08:41:34;101232.69;;;-4.03;66.34
46598;BME280;32318;48.858;8.252;2024-01-10T08:49:37;101221.09;;;-3.95;66.41
46598;BME280;32318;48.858;8.252;2024-01-10T08:57:38;101243.50;;;-3.87;66.48
46598;BME280;32318;48.858;8.252;2024-01-10T09:05:40;101252.69;;;-3.75;66.38
46598;BME280;32318;48.858;8.252;2024-01-10T09:13:40;101253.09;;;-3.59;66.05
46598;BME280;32318;48.858;8.252;2024-01-10T09:21:40;101249.16;;;-3.44;65.70
46598;BME280;32318;48.858;8.252;2024-01-10T09:29:40;101257.69;;;-3.39;65.79
46598;BME280;32318;48.858;8.252;2024-01-10T09:37:41;101255.66;;;-3.31;66.02
46598;BME280;32318;48.858;8.252;2024-01-10T09:45:48;101261.34;;;-3.18;65.73
46598;BME280;32318;48.858;8.252;2024-01-10T09:53:51;101260.19;;;-3.09;65.80
46598;BME280;32318;48.858;8.252;2024-01-10T10:01:52;101266.63;;;-2.93;65.50
46598;BME280;32318;48.858;8.252;2024-01-10T10:09:53;101271.41;;;-2.80;64.76
46598;BME280;32318;48.858;8.252;2024-01-10T10:17:56;101270.19;;;-2.70;64.98
46598;BME280;32318;48.858;8.252;2024-01-10T10:25:56;101261.53;;;-2.47;64.49
46598;BME280;32318;48.858;8.252;2024-01-10T10:33:59;101246.94;;;-2.29;63.79
46598;BME280;32318;48.858;8.252;2024-01-10T10:42:01;101251.28;;;-2.04;63.26
46598;BME280;32318;48.858;8.252;2024-01-10T10:50:03;101258.28;;;-1.82;62.77
46598;BME280;32318;48.858;8.252;2024-01-10T10:58:04;101262.03;;;-1.66;62.46
46598;BME280;32318;48.858;8.252;2024-01-10T11:06:05;101254.09;;;-1.64;63.22
46598;BME280;32318;48.858;8.252;2024-01-10T11:30:50;101248.94;;;-1.01;60.37
46598;BME280;32318;48.858;8.252;2024-01-10T11:38:58;101251.75;;;-1.05;61.01
46598;BME280;32318;48.858;8.252;2024-01-10T11:47:03;101238.06;;;-0.91;61.37
46598;BME280;32318;48.858;8.252;2024-01-10T11:55:05;101238.13;;;-0.72;60.01
46598;BME280;32318;48.858;8.252;2024-01-10T12:03:11;101227.09;;;-0.60;59.81
46598;BME280;32318;48.858;8.252;2024-01-10T12:11:11;101228.75;;;-0.57;58.75
46598;BME280;32318;48.858;8.252;2024-01-10T12:19:12;101225.28;;;-0.39;58.78
46598;BME280;32318;48.858;8.252;2024-01-10T12:27:12;101218.66;;;-0.27;58.52
46598;BME280;32318;48.858;8.252;2024-01-10T12:35:13;101211.09;;;-0.16;58.39
46598;BME280;32318;48.858;8.252;2024-01-10T12:43:13;101199.13;;;-0.02;57.75
46598;BME280;32318;48.858;8.252;2024-01-10T12:51:13;101202.56;;;0.18;57.09
46598;BME280;32318;48.858;8.252;2024-01-10T12:59:14;101206.34;;;0.12;57.25
46598;BME280;32318;48.858;8.252;2024-01-10T13:07:14;101194.47;;;0.22;55.86
46598;BME280;32318;48.858;8.252;2024-01-10T13:15:16;101189.69;;;0.13;56.78
46598;BME280;32318;48.858;8.252;2024-01-10T13:23:17;101197.03;;;0.24;56.95
46598;BME280;32318;48.858;8.252;2024-01-10T13:31:18;101205.09;;;0.38;56.46
46598;BME280;32318;48.858;8.252;2024-01-10T13:39:20;101208.31;;;0.62;55.56
46598;BME280;32318;48.858;8.252;2024-01-10T13:47:20;101217.00;;;0.45;56.92
46598;BME280;32318;48.858;8.252;2024-01-10T13:55:23;101210.38;;;0.56;56.39
46598;BME280;32318;48.858;8.252;2024-01-10T14:03:24;101207.63;;;0.59;56.15
46598;BME280;32318;48.858;8.252;2024-01-10T14:11:24;101202.81;;;0.50;56.63
46598;BME280;32318;48.858;8.252;2024-01-10T14:19:25;101204.28;;;0.55;56.73
46598;BME280;32318;48.858;8.252;2024-01-10T14:27:27;101201.88;;;0.51;56.23
46598;BME280;32318;48.858;8.252;2024-01-10T14:35:27;101195.72;;;0.52;55.99
46598;BME280;32318;48.858;8.252;2024-01-10T14:43:28;101202.34;;;0.59;55.87
46598;BME280;32318;48.858;8.252;2024-01-10T14:51:28;101214.72;;;0.57;55.73
46598;BME280;32318;48.858;8.252;2024-01-10T14:59:29;101220.28;;;0.31;56.89
46598;BME280;32318;48.858;8.252;2024-01-10T15:07:30;101229.13;;;0.11;58.17
46598;BME280;32318;48.858;8.252;2024-01-10T15:15:30;101230.25;;;0.06;59.03
46598;BME280;32318;48.858;8.252;2024-01-10T15:23:32;101231.56;;;-0.03;58.58
46598;BME280;32318;48.858;8.252;2024-01-10T15:31:33;101240.19;;;-0.20;59.13
46598;BME280;32318;48.858;8.252;2024-01-10T15:39:35;101247.00;;;-0.35;60.10
46598;BME280;32318;48.858;8.252;2024-01-10T15:47:38;101250.94;;;-0.45;60.58
46598;BME280;32318;48.858;8.252;2024-01-10T15:55:38;101253.81;;;-0.52;60.72
46598;BME280;32318;48.858;8.252;2024-01-10T16:03:38;101251.47;;;-0.58;61.00
46598;BME280;32318;48.858;8.252;2024-01-10T16:11:40;101259.53;;;-0.63;61.71
46598;BME280;32318;48.858;8.252;2024-01-10T16:19:40;101245.72;;;-0.66;61.22
46598;BME280;32318;48.858;8.252;2024-01-10T16:27:42;101239.69;;;-0.68;60.90
46598;BME280;32318;48.858;8.252;2024-01-10T16:35:42;101241.94;;;-0.80;61.80
46598;BME280;32318;48.858;8.252;2024-01-10T16:43:43;101235.81;;;-0.80;61.11
46598;BME280;32318;48.858;8.252;2024-01-10T16:51:44;101242.44;;;-0.92;61.73
46598;BME280;32318;48.858;8.252;2024-01-10T16:59:45;101247.63;;;-0.90;61.95
46598;BME280;32318;48.858;8.252;2024-01-10T17:07:45;101245.38;;;-1.00;62.12
46598;BME280;32318;48.858;8.252;2024-01-10T17:15:46;101248.06;;;-1.01;61.95
46598;BME280;32318;48.858;8.252;2024-01-10T17:23:46;101255.81;;;-0.98;61.57
46598;BME280;32318;48.858;8.252;2024-01-10T17:31:47;101249.72;;;-0.99;61.94
46598;BME280;32318;48.858;8.252;2024-01-10T17:39:47;101247.09;;;-0.99;61.82
46598;BME280;32318;48.858;8.252;2024-01-10T17:47:48;101251.88;;;-1.08;61.99
46598;BME280;32318;48.858;8.252;2024-01-10T17:55:48;101262.47;;;-1.12;61.69
46598;BME280;32318;48.858;8.252;2024-01-10T18:03:51;101263.00;;;-1.03;61.41
46598;BME280;32318;48.858;8.252;2024-01-10T18:11:51;101262.47;;;-1.12;61.88
46598;BME280;32318;48.858;8.252;2024-01-10T18:19:52;101260.75;;;-1.13;62.03
46598;BME280;32318;48.858;8.252;2024-01-10T18:27:52;101265.34;;;-1.18;61.78
46598;BME280;32318;48.858;8.252;2024-01-10T18:35:52;101263.00;;;-1.24;62.37
46598;BME280;32318;48.858;8.252;2024-01-10T18:43:52;101271.50;;;-1.19;62.11
46598;BME280;32318;48.858;8.252;2024-01-10T18:51:54;101282.13;;;-1.22;62.53
46598;BME280;32318;48.858;8.252;2024-01-10T18:59:58;101295.78;;;-1.36;63.20
46598;BME280;32318;48.858;8.252;2024-01-10T19:07:58;101281.97;;;-1.39;62.88
46598;BME280;32318;48.858;8.252;2024-01-10T19:15:59;101286.88;;;-1.54;63.32
46598;BME280;32318;48.858;8.252;2024-01-10T19:24:01;101294.63;;;-1.51;63.55
46598;BME280;32318;48.858;8.252;2024-01-10T19:32:02;101302.16;;;-1.65;64.39
46598;BME280;32318;48.858;8.252;2024-01-10T19:40:03;101314.50;;;-1.69;64.14
46598;BME280;32318;48.858;8.252;2024-01-10T19:48:04;101310.38;;;-1.75;64.43
46598;BME280;32318;48.858;8.252;2024-01-10T19:56:05;101313.75;;;-1.73;64.36
46598;BME280;32318;48.858;8.252;2024-01-10T20:04:05;101314.34;;;-1.88;64.57
46598;BME280;32318;48.858;8.252;2024-01-10T20:12:06;101324.81;;;-1.88;64.97
46598;BME280;32318;48.858;8.252;2024-01-10T20:20:09;101326.03;;;-1.97;65.34
46598;BME280;32318;48.858;8.252;2024-01-10T20:28:12;101325.16;;;-1.97;65.22
46598;BME280;32318;48.858;8.252;2024-01-10T20:36:12;101321.16;;;-2.08;65.92
46598;BME280;32318;48.858;8.252;2024-01-10T20:44:12;101324.91;;;-2.15;66.20
46598;BME280;32318;48.858;8.252;2024-01-10T20:52:13;101328.81;;;-2.27;66.80
46598;BME280;32318;48.858;8.252;2024-01-10T21:00:17;101336.03;;;-2.33;66.92
46598;BME280;32318;48.858;8.252;2024-01-10T21:08:22;101330.28;;;-2.43;67.44
46598;BME280;32318;48.858;8.252;2024-01-10T21:16:22;101339.31;;;-2.52;67.90
46598;BME280;32318;48.858;8.252;2024-01-10T21:24:26;101338.59;;;-2.57;67.77
46598;BME280;32318;48.858;8.252;2024-01-10T21:32:29;101341.66;;;-2.70;68.41
46598;BME280;32318;48.858;8.252;2024-01-10T21:40:29;101342.41;;;-2.66;68.19
46598;BME280;32318;48.858;8.252;2024-01-10T21:48:30;101331.19;;;-2.70;68.29
46598;BME280;32318;48.858;8.252;2024-01-10T21:56:30;101343.53;;;-2.75;68.43
46598;BME280;32318;48.858;8.252;2024-01-10T22:04:30;101339.06;;;-2.71;67.99
46598;BME280;32318;48.858;8.252;2024-01-10T22:12:34;101343.53;;;-2.75;68.13
46598;BME280;32318;48.858;8.252;2024-01-10T22:20:34;101351.53;;;-2.79;68.22
46598;BME280;32318;48.858;8.252;2024-01-10T22:28:35;101344.25;;;-2.96;68.51
46598;BME280;32318;48.858;8.252;2024-01-10T22:36:35;101359.34;;;-3.05;69.34
46598;BME280;32318;48.858;8.252;2024-01-10T22:44:35;101353.16;;;-3.02;69.12
46598;BME280;32318;48.858;8.252;2024-01-10T22:52:36;101354.00;;;-3.02;68.88
46598;BME280;32318;48.858;8.252;2024-01-10T23:00:36;101349.06;;;-3.11;69.43
46598;BME280;32318;48.858;8.252;2024-01-10T23:08:36;101340.47;;;-3.15;69.71
46598;BME280;32318;48.858;8.252;2024-01-10T23:16:36;101340.88;;;-3.28;70.43
46598;BME280;32318;48.858;8.252;2024-01-10T23:24:37;101351.47;;;-3.33;70.90
46598;BME280;32318;48.858;8.252;2024-01-10T23:32:37;101356.69;;;-3.33;70.79
46598;BME280;32318;48.858;8.252;2024-01-10T23:40:37;101356.84;;;-3.38;70.92
46598;BME280;32318;48.858;8.252;2024-01-10T23:48:40;101349.16;;;-3.42;71.77
46598;BME280;32318;48.858;8.252;2024-01-10T23:56:40;101355.47;;;-3.50;72.35
